Time;durP1;ratioP1;P1;durP2;ratioP2;P2;SDS_P1;SDS_P2;PMS_P1;PMS_P2;Temp;Humidity;BMP_temperature;BMP_pressure;BME280_temperature;BME280_humidity;BME280_pressure;Samples;Min_cycle;Max_cycle;Signal;HPM_P1;HPM_P2
2022/01/30 00:00:59;;;;;;;4.35;2.55;;;9.00;81.90;;;;;;5118382;27;20035;-60
2022/01/30 00:03:26;;;;;;;7.22;2.58;;;9.00;82.30;;;;;;5132258;27;20035;-60
2022/01/30 00:05:54;;;;;;;5.25;2.78;;;9.00;82.60;;;;;;5144012;27;20036;-60
2022/01/30 00:08:21;;;;;;;4.28;2.70;;;8.90;82.90;;;;;;5135622;27;20138;-60
2022/01/30 00:10:56;;;;;;;10.20;3.50;;;8.90;83.20;;;;;;5113380;27;20046;-60
2022/01/30 00:13:26;;;;;;;6.65;2.33;;;8.90;83.40;;;;;;5097391;27;20505;-60
2022/01/30 00:15:54;;;;;;;6.82;2.42;;;8.90;83.60;;;;;;5139097;27;20027;-61
2022/01/30 00:21:09;;;;;;;3.40;1.98;;;8.80;84.10;;;;;;5116251;27;20556;-60
2022/01/30 00:23:43;;;;;;;4.93;2.28;;;8.90;84.40;;;;;;5142147;27;20042;-60
2022/01/30 00:26:13;;;;;;;7.15;2.65;;;8.90;84.70;;;;;;5102399;27;20047;-60
2022/01/30 00:28:41;;;;;;;3.90;2.15;;;8.80;84.90;;;;;;5131000;27;20048;-59
2022/01/30 00:31:10;;;;;;;4.10;2.53;;;8.80;85.10;;;;;;5113376;27;20118;-60
2022/01/30 00:33:38;;;;;;;4.68;2.40;;;8.80;85.20;;;;;;5107275;27;20046;-60
2022/01/30 00:36:05;;;;;;;5.28;2.78;;;8.70;85.20;;;;;;5110964;27;20132;-60
2022/01/30 00:38:35;;;;;;;4.30;3.05;;;8.70;85.40;;;;;;5113280;27;20081;-59
2022/01/30 00:41:02;;;;;;;5.15;2.92;;;8.80;85.50;;;;;;5129387;27;20110;-60
2022/01/30 00:43:30;;;;;;;6.00;3.20;;;8.80;85.50;;;;;;5113116;27;20046;-60
2022/01/30 00:45:58;;;;;;;7.22;4.45;;;8.80;85.50;;;;;;5106814;28;20122;-59
2022/01/30 00:48:26;;;;;;;7.45;3.25;;;8.80;86.00;;;;;;5125052;27;20126;-59
2022/01/30 00:50:54;;;;;;;6.55;3.47;;;8.80;85.70;;;;;;5096700;27;20051;-60
2022/01/30 00:53:21;;;;;;;3.55;2.00;;;8.80;85.80;;;;;;5093668;28;20044;-60
2022/01/30 00:55:49;;;;;;;3.22;2.50;;;8.80;85.90;;;;;;5124000;27;20088;-60
2022/01/30 00:58:16;;;;;;;4.10;2.30;;;8.80;86.10;;;;;;5128870;28;20039;-60
2022/01/30 01:00:44;;;;;;;4.00;2.55;;;8.80;86.00;;;;;;5094760;28;20046;-59
2022/01/30 01:03:12;;;;;;;5.68;3.40;;;8.80;86.30;;;;;;5119778;28;20493;-60
2022/01/30 01:05:40;;;;;;;6.82;2.15;;;8.80;86.30;;;;;;5132487;27;20542;-59
2022/01/30 01:08:16;;;;;;;2.78;2.20;;;8.70;86.50;;;;;;5117714;28;20050;-60
2022/01/30 01:10:53;;;;;;;3.50;2.22;;;8.70;86.80;;;;;;5127735;28;20459;-60
2022/01/30 01:13:50;;;;;;;5.03;3.10;;;8.70;87.00;;;;;;5107556;28;20054;-60
2022/01/30 01:24:08;;;;;;;5.68;3.33;;;8.60;87.20;;;;;;5125835;28;20084;-59
2022/01/30 01:26:37;;;;;;;5.95;3.47;;;8.50;87.30;;;;;;5112966;28;20044;-60
2022/01/30 01:29:06;;;;;;;5.65;2.65;;;8.50;87.50;;;;;;5122388;28;20047;-59
2022/01/30 01:31:34;;;;;;;4.45;3.17;;;8.40;87.70;;;;;;5104328;28;20035;-60
2022/01/30 01:36:29;;;;;;;3.10;2.17;;;8.40;88.20;;;;;;5096664;28;21038;-59
2022/01/30 01:38:56;;;;;;;4.75;2.75;;;8.40;88.40;;;;;;5110144;28;20035;-59
2022/01/30 01:41:27;;;;;;;6.40;3.08;;;8.40;88.50;;;;;;5131924;27;20073;-59
2022/01/30 01:43:55;;;;;;;5.13;2.17;;;8.40;88.60;;;;;;5125385;27;20088;-60
2022/01/30 01:46:27;;;;;;;6.63;3.17;;;8.40;88.70;;;;;;5119619;27;20035;-59
2022/01/30 01:48:55;;;;;;;3.75;2.42;;;8.40;88.60;;;;;;5109032;27;20074;-59
2022/01/30 01:51:30;;;;;;;3.35;2.40;;;8.40;88.40;;;;;;5119716;27;20080;-59
2022/01/30 01:54:00;;;;;;;4.73;2.60;;;8.40;88.40;;;;;;5111807;27;20114;-59
2022/01/30 01:56:28;;;;;;;4.65;2.80;;;8.40;88.40;;;;;;5128711;27;20550;-60
2022/01/30 01:59:13;;;;;;;7.25;2.50;;;8.40;88.40;;;;;;5111334;27;20429;-60
2022/01/30 02:02:01;;;;;;;7.43;2.90;;;8.40;88.60;;;;;;5118173;27;20506;-59
2022/01/30 02:04:29;;;;;;;4.40;2.60;;;8.40;88.80;;;;;;5109784;27;20035;-60
2022/01/30 02:09:35;;;;;;;8.55;3.33;;;8.40;88.60;;;;;;5136308;27;20062;-59
2022/01/30 02:12:03;;;;;;;4.70;3.13;;;8.30;88.50;;;;;;5111032;27;20039;-59
2022/01/30 02:14:44;;;;;;;4.78;1.77;;;8.30;88.50;;;;;;5142180;27;20082;-60
2022/01/30 02:27:59;;;;;;;8.02;3.38;;;8.20;88.80;;;;;;5134436;27;20084;-60
2022/01/30 02:30:33;;;;;;;8.25;3.72;;;8.20;88.80;;;;;;5116824;27;20097;-60
2022/01/30 02:33:01;;;;;;;6.13;3.03;;;8.20;88.70;;;;;;5133880;27;20038;-60
2022/01/30 02:35:29;;;;;;;3.47;2.47;;;8.20;88.40;;;;;;5116832;27;20042;-60
2022/01/30 02:37:59;;;;;;;5.03;2.45;;;8.20;88.30;;;;;;5133916;27;20126;-60
2022/01/30 02:40:30;;;;;;;3.00;1.85;;;8.20;88.00;;;;;;5117671;27;20100;-60
2022/01/30 02:42:57;;;;;;;3.25;2.25;;;8.20;88.00;;;;;;5117878;27;20074;-59
2022/01/30 02:45:29;;;;;;;6.40;3.13;;;8.20;87.80;;;;;;5118515;27;20043;-60
2022/01/30 02:48:11;;;;;;;6.38;1.92;;;8.20;87.80;;;;;;5135733;27;20066;-60
2022/01/30 02:50:52;;;;;;;3.25;1.92;;;8.20;88.10;;;;;;5136488;27;20082;-60
2022/01/30 02:53:29;;;;;;;5.18;1.67;;;8.10;88.30;;;;;;5117813;27;20039;-60
2022/01/30 02:55:57;;;;;;;3.22;2.00;;;8.10;88.20;;;;;;5118555;27;20035;-60
2022/01/30 02:58:25;;;;;;;8.52;1.92;;;8.10;87.90;;;;;;5135407;27;20076;-60
2022/01/30 03:00:52;;;;;;;5.88;2.60;;;8.10;88.00;;;;;;5101060;27;20047;-60
2022/01/30 03:03:20;;;;;;;7.03;2.83;;;8.10;87.90;;;;;;5101548;27;20560;-60
2022/01/30 03:05:48;;;;;;;2.95;1.98;;;8.10;87.90;;;;;;5136392;27;20043;-59
2022/01/30 03:08:16;;;;;;;4.95;2.13;;;8.00;88.20;;;;;;5134845;27;20050;-60
2022/01/30 03:10:44;;;;;;;4.20;1.90;;;8.00;88.50;;;;;;5118158;27;20054;-59
2022/01/30 03:13:11;;;;;;;8.45;2.00;;;8.00;88.30;;;;;;5135251;27;20035;-60
2022/01/30 03:15:39;;;;;;;6.93;2.53;;;7.90;88.40;;;;;;5134902;27;20035;-59
2022/01/30 03:18:07;;;;;;;6.50;2.25;;;7.90;88.40;;;;;;5134868;27;20468;-60
2022/01/30 03:20:34;;;;;;;4.22;2.55;;;7.80;88.50;;;;;;5134911;27;20398;-60
2022/01/30 03:23:03;;;;;;;3.40;1.95;;;7.80;88.90;;;;;;5117550;27;20439;-59
2022/01/30 03:25:32;;;;;;;3.20;2.13;;;7.80;89.10;;;;;;5135190;27;20065;-60
2022/01/30 03:28:18;;;;;;;3.70;2.08;;;7.80;89.10;;;;;;5134847;27;20042;-60
2022/01/30 03:30:54;;;;;;;4.20;1.83;;;7.80;89.10;;;;;;5117508;27;20053;-60
2022/01/30 03:33:31;;;;;;;6.03;1.95;;;7.70;89.30;;;;;;5134571;27;20081;-60
2022/01/30 03:35:59;;;;;;;5.78;2.60;;;7.70;89.50;;;;;;5134704;27;20039;-59
2022/01/30 03:38:27;;;;;;;3.72;2.35;;;7.70;89.20;;;;;;5135592;27;20039;-59
2022/01/30 03:40:55;;;;;;;3.13;2.10;;;7.70;89.10;;;;;;5117385;27;20092;-60
2022/01/30 03:43:23;;;;;;;3.33;2.05;;;7.70;89.20;;;;;;5134556;27;20046;-60
2022/01/30 03:45:51;;;;;;;3.90;2.00;;;7.70;89.20;;;;;;5134411;27;20053;-59
2022/01/30 03:48:18;;;;;;;4.32;2.40;;;7.60;89.00;;;;;;5117426;27;20043;-60
2022/01/30 03:51:04;;;;;;;3.65;2.08;;;7.60;89.00;;;;;;5135580;27;20135;-60
2022/01/30 03:53:32;;;;;;;5.78;1.85;;;7.60;88.60;;;;;;5116858;27;20051;-59
2022/01/30 03:56:00;;;;;;;3.25;1.83;;;7.60;88.60;;;;;;5116934;27;20070;-59
2022/01/30 03:58:32;;;;;;;9.23;2.40;;;7.60;88.40;;;;;;5083469;27;20092;-60
2022/01/30 04:01:06;;;;;;;3.53;2.03;;;7.60;88.20;;;;;;5134296;27;20039;-60
2022/01/30 04:03:36;;;;;;;3.92;1.92;;;7.60;88.30;;;;;;5117226;27;20381;-59
2022/01/30 04:06:05;;;;;;;4.13;2.35;;;7.60;88.40;;;;;;5133664;27;20548;-59
2022/01/30 04:08:33;;;;;;;6.43;2.10;;;7.50;88.60;;;;;;5117088;27;20549;-59
2022/01/30 04:11:18;;;;;;;4.43;2.00;;;7.50;88.90;;;;;;5133866;27;20054;-59
2022/01/30 04:14:07;;;;;;;5.45;2.10;;;7.50;88.80;;;;;;5106198;27;20070;-60
2022/01/30 04:16:57;;;;;;;4.82;2.50;;;7.50;89.00;;;;;;5125908;27;20058;-59
2022/01/30 04:19:46;;;;;;;6.05;2.40;;;7.40;89.10;;;;;;5134681;27;20050;-59
2022/01/30 04:22:32;;;;;;;5.32;2.30;;;7.40;89.40;;;;;;5133938;27;20393;-60
2022/01/30 04:25:15;;;;;;;4.95;2.50;;;7.40;89.60;;;;;;5133910;27;20027;-59
2022/01/30 04:28:08;;;;;;;9.05;2.90;;;7.40;89.70;;;;;;5134049;27;20092;-59
2022/01/30 04:30:57;;;;;;;6.50;2.30;;;7.40;89.70;;;;;;5134850;27;20566;-59
2022/01/30 04:33:35;;;;;;;4.78;2.72;;;7.30;89.60;;;;;;5133633;27;20050;-59
2022/01/30 04:36:20;;;;;;;2.75;2.03;;;7.30;89.60;;;;;;5101206;27;20088;-59
2022/01/30 04:39:17;;;;;;;3.20;1.65;;;7.40;89.40;;;;;;5133604;27;20047;-59
2022/01/30 04:42:26;;;;;;;2.78;2.17;;;7.30;89.20;;;;;;5116629;27;20075;-59
2022/01/30 04:52:24;;;;;;;4.18;1.88;;;7.20;89.40;;;;;;5133350;27;20039;-60
2022/01/30 04:58:30;;;;;;;4.82;2.15;;;7.00;89.70;;;;;;5133355;28;20393;-59
2022/01/30 05:01:34;;;;;;;5.95;2.53;;;6.90;88.50;;;;;;5116239;28;20051;-60
2022/01/30 05:04:28;;;;;;;4.22;2.33;;;6.70;88.50;;;;;;5134540;27;20046;-60
2022/01/30 05:09:59;;;;;;;4.15;2.60;;;6.60;88.20;;;;;;5134167;28;20482;-60
2022/01/30 05:12:54;;;;;;;3.90;2.08;;;6.60;88.80;;;;;;5126081;28;20512;-60
2022/01/30 05:15:46;;;;;;;4.38;1.90;;;6.50;89.40;;;;;;5116927;27;20419;-60
2022/01/30 05:18:22;;;;;;;4.13;2.65;;;6.60;90.40;;;;;;5138441;27;20485;-60
2022/01/30 05:21:11;;;;;;;5.53;2.28;;;6.60;91.00;;;;;;5120805;27;20043;-59
2022/01/30 05:23:46;;;;;;;4.18;2.78;;;6.60;91.50;;;;;;5104468;27;20039;-59
2022/01/30 05:26:24;;;;;;;;;;;6.60;91.60;;;;;;5137693;27;20036;-59
2022/01/30 05:29:10;;;;;;;4.80;2.33;;;6.60;91.80;;;;;;5120337;27;19923;-60
2022/01/30 05:32:08;;;;;;;4.43;3.03;;;6.70;91.70;;;;;;5123959;27;20460;-59
2022/01/30 05:34:52;;;;;;;4.55;2.28;;;6.80;91.70;;;;;;5136943;27;20035;-59
2022/01/30 05:37:37;;;;;;;5.00;2.17;;;6.80;91.70;;;;;;5120040;27;20039;-59
2022/01/30 05:40:24;;;;;;;9.07;1.95;;;6.90;91.70;;;;;;5138040;27;20092;-60
2022/01/30 05:43:05;;;;;;;3.88;2.40;;;6.90;91.80;;;;;;5137868;27;20047;-60
2022/01/30 05:46:05;;;;;;;7.85;2.80;;;7.00;91.80;;;;;;5102150;27;20051;-59
2022/01/30 05:48:56;;;;;;;3.83;2.30;;;7.00;91.70;;;;;;5136590;27;20435;-59
2022/01/30 05:51:30;;;;;;;3.55;2.05;;;7.00;91.60;;;;;;5136664;27;20135;-59
2022/01/30 05:54:06;;;;;;;6.97;2.13;;;7.10;91.70;;;;;;5136592;27;20096;-60
2022/01/30 05:56:37;;;;;;;3.67;2.22;;;7.10;91.70;;;;;;5137968;27;20043;-59
2022/01/30 05:59:15;;;;;;;5.05;2.40;;;7.10;91.70;;;;;;5136680;27;20039;-59
2022/01/30 06:02:01;;;;;;;4.53;1.50;;;7.10;91.80;;;;;;5137718;27;20497;-59
2022/01/30 06:04:29;;;;;;;3.60;1.92;;;7.10;91.90;;;;;;5119173;27;20366;-59
2022/01/30 06:06:57;;;;;;;4.03;2.00;;;7.10;92.10;;;;;;5136238;27;20049;-59
2022/01/30 06:09:26;;;;;;;3.45;2.05;;;7.10;92.10;;;;;;5119693;27;20138;-59
2022/01/30 06:11:55;;;;;;;5.43;2.10;;;7.10;92.20;;;;;;5136358;27;20378;-59
2022/01/30 06:14:24;;;;;;;4.82;2.20;;;7.20;92.30;;;;;;5118885;27;20051;-59
2022/01/30 06:17:07;;;;;;;5.80;2.80;;;7.20;92.30;;;;;;5136517;27;20042;-59
2022/01/30 06:19:59;;;;;;;5.72;2.20;;;7.50;92.40;;;;;;5128826;27;20079;-59
2022/01/30 06:22:45;;;;;;;4.30;2.67;;;7.90;92.10;;;;;;5136395;27;20043;-59
2022/01/30 06:25:31;;;;;;;5.15;2.42;;;8.50;91.50;;;;;;5137316;27;20046;-60
2022/01/30 06:28:17;;;;;;;5.28;2.63;;;9.00;90.90;;;;;;5135238;27;20062;-59
2022/01/30 06:30:51;;;;;;;6.50;2.53;;;9.60;90.20;;;;;;5136116;27;20127;-59
2022/01/30 06:33:44;;;;;;;5.93;2.20;;;10.00;89.10;;;;;;5133135;27;20055;-59
2022/01/30 06:36:50;;;;;;;4.07;1.95;;;10.50;87.70;;;;;;5056640;28;20561;-59
2022/01/30 06:39:42;;;;;;;6.90;2.28;;;11.20;86.40;;;;;;5040214;28;20398;-59
2022/01/30 06:42:20;;;;;;;8.50;3.00;;;11.70;84.90;;;;;;5118506;27;20055;-60
2022/01/30 06:45:07;;;;;;;5.55;2.08;;;12.30;83.50;;;;;;5136013;27;20103;-59
2022/01/30 06:47:53;;;;;;;3.35;2.28;;;12.90;81.90;;;;;;5135866;27;20481;-59
2022/01/30 06:50:45;;;;;;;2.38;1.70;;;13.40;81.10;;;;;;5127557;27;20055;-60
2022/01/30 06:53:35;;;;;;;3.75;2.15;;;13.90;79.70;;;;;;5135362;27;20520;-59
2022/01/30 06:56:23;;;;;;;4.13;3.35;;;14.60;78.40;;;;;;5106753;27;20047;-60
2022/01/30 06:59:28;;;;;;;3.95;2.20;;;15.20;77.30;;;;;;5115917;27;20051;-60
2022/01/30 07:02:15;;;;;;;2.70;1.88;;;15.80;76.00;;;;;;5129634;27;20031;-60
2022/01/30 07:05:21;;;;;;;5.00;1.88;;;16.30;74.90;;;;;;5022820;28;20096;-60
2022/01/30 07:07:53;;;;;;;3.70;1.55;;;17.10;73.70;;;;;;5015974;28;20451;-60
2022/01/30 07:10:23;;;;;;;3.70;1.90;;;17.50;73.10;;;;;;5082396;27;20043;-60
2022/01/30 07:12:51;;;;;;;3.15;1.60;;;17.80;72.10;;;;;;5121430;27;20031;-58
2022/01/30 07:15:18;;;;;;;2.85;1.80;;;18.20;71.50;;;;;;5127694;27;20035;-58
2022/01/30 07:17:46;;;;;;;2.85;1.60;;;18.60;71.20;;;;;;5117406;27;20043;-58
2022/01/30 07:20:14;;;;;;;7.35;2.47;;;19.00;70.40;;;;;;5117236;27;20047;-58
2022/01/30 07:22:41;;;;;;;4.20;1.55;;;19.30;70.10;;;;;;5117754;27;20441;-58
2022/01/30 07:25:09;;;;;;;3.95;1.90;;;19.60;69.60;;;;;;5134470;27;20430;-58
2022/01/30 07:27:38;;;;;;;3.85;2.38;;;19.70;69.20;;;;;;5134772;27;20036;-57
2022/01/30 07:30:06;;;;;;;2.28;1.50;;;19.60;69.10;;;;;;5133633;27;20043;-57
2022/01/30 07:32:34;;;;;;;4.35;2.20;;;19.50;69.70;;;;;;5133985;27;20039;-58
2022/01/30 07:35:01;;;;;;;2.88;1.77;;;19.10;70.00;;;;;;5134605;27;20117;-58
2022/01/30 07:37:29;;;;;;;11.00;3.03;;;18.80;70.50;;;;;;5135520;27;20039;-58
2022/01/30 07:39:59;;;;;;;7.07;2.58;;;18.60;71.20;;;;;;5134493;27;20043;-57
2022/01/30 07:42:27;;;;;;;6.18;2.88;;;18.30;71.50;;;;;;5135378;27;20461;-58
2022/01/30 07:44:57;;;;;;;5.32;2.30;;;17.90;71.50;;;;;;5135347;27;20036;-58
2022/01/30 07:47:24;;;;;;;5.10;2.70;;;17.70;71.80;;;;;;5135583;27;20073;-58
2022/01/30 07:49:52;;;;;;;4.25;2.22;;;17.50;72.10;;;;;;5134137;27;20058;-58
2022/01/30 07:52:20;;;;;;;4.28;1.80;;;17.30;72.70;;;;;;5117070;27;20051;-59
2022/01/30 07:54:49;;;;;;;6.13;2.72;;;17.30;72.70;;;;;;5100016;27;20047;-59
2022/01/30 07:57:18;;;;;;;4.28;2.58;;;17.30;73.00;;;;;;5135237;27;20039;-58
2022/01/30 07:59:46;;;;;;;19.35;3.58;;;17.30;73.10;;;;;;5133986;27;20442;-58
2022/01/30 08:02:14;;;;;;;6.38;2.40;;;17.20;73.10;;;;;;5134976;27;20126;-58
2022/01/30 08:04:42;;;;;;;5.18;2.72;;;17.20;73.40;;;;;;5133714;27;20350;-59
2022/01/30 08:07:09;;;;;;;5.43;2.20;;;17.10;73.70;;;;;;5133610;27;20043;-58
2022/01/30 08:09:37;;;;;;;4.63;2.63;;;17.00;73.90;;;;;;5134897;27;20071;-58
2022/01/30 08:12:05;;;;;;;5.10;2.92;;;16.90;74.10;;;;;;5133844;27;20122;-58
2022/01/30 08:14:33;;;;;;;3.45;1.73;;;16.80;74.30;;;;;;5133687;27;20443;-58
2022/01/30 08:17:01;;;;;;;5.78;2.15;;;16.60;75.00;;;;;;5135118;27;20043;-58
2022/01/30 08:19:29;;;;;;;3.03;1.85;;;16.40;75.40;;;;;;5133725;27;20083;-58
2022/01/30 08:22:01;;;;;;;7.50;2.75;;;16.10;76.00;;;;;;5133530;27;20039;-58
2022/01/30 08:24:28;;;;;;;6.60;2.42;;;16.00;76.30;;;;;;5134853;27;20206;-58
2022/01/30 08:26:56;;;;;;;5.22;3.03;;;15.80;76.70;;;;;;5135158;27;20084;-58
2022/01/30 08:29:24;;;;;;;6.00;2.78;;;15.60;77.40;;;;;;5133495;27;20133;-58
2022/01/30 08:31:51;;;;;;;9.70;2.60;;;15.50;77.80;;;;;;5116854;27;20074;-58
2022/01/30 08:34:19;;;;;;;4.40;2.42;;;15.30;78.70;;;;;;5133394;27;20039;-60
2022/01/30 08:36:46;;;;;;;5.03;2.88;;;15.30;78.60;;;;;;5134619;27;20455;-58
2022/01/30 08:39:14;;;;;;;5.88;2.42;;;15.20;79.00;;;;;;5134795;27;20035;-58
2022/01/30 08:41:42;;;;;;;4.47;3.00;;;15.20;79.20;;;;;;5116296;27;20051;-59
2022/01/30 08:44:09;;;;;;;3.40;2.20;;;15.20;79.60;;;;;;5134863;27;20074;-59
2022/01/30 08:46:37;;;;;;;4.93;3.00;;;15.20;79.70;;;;;;5133690;27;20043;-58
2022/01/30 08:49:05;;;;;;;5.95;3.55;;;15.10;79.70;;;;;;5134373;27;20035;-59
2022/01/30 08:51:32;;;;;;;7.18;2.90;;;15.10;80.10;;;;;;5132890;27;20050;-57
2022/01/30 08:54:01;;;;;;;6.00;2.85;;;15.20;80.40;;;;;;5116310;27;20100;-59
2022/01/30 08:56:29;;;;;;;3.95;2.40;;;15.20;80.70;;;;;;5134942;28;20508;-58
2022/01/30 08:58:57;;;;;;;3.95;2.20;;;15.20;80.60;;;;;;5134751;28;20035;-59
2022/01/30 09:01:30;;;;;;;3.55;2.55;;;15.30;80.40;;;;;;5116327;28;20046;-58
2022/01/30 09:03:59;;;;;;;6.47;2.70;;;15.40;80.40;;;;;;5134565;28;20039;-59
2022/01/30 09:06:27;;;;;;;4.93;3.20;;;15.50;80.60;;;;;;5134411;28;20118;-59
2022/01/30 09:08:54;;;;;;;4.60;2.58;;;15.60;80.90;;;;;;5099280;28;20055;-59
2022/01/30 09:11:22;;;;;;;4.35;2.70;;;15.60;81.10;;;;;;5134693;28;20050;-59
2022/01/30 09:13:50;;;;;;;5.18;2.50;;;15.70;81.40;;;;;;5134552;28;20500;-59
2022/01/30 09:16:17;;;;;;;5.72;2.25;;;15.80;81.30;;;;;;5134327;28;20039;-59
2022/01/30 09:18:45;;;;;;;5.35;2.67;;;15.80;81.80;;;;;;5134228;28;20122;-59
2022/01/30 09:21:13;;;;;;;6.97;2.58;;;15.70;82.50;;;;;;5133151;28;20435;-59
2022/01/30 09:23:41;;;;;;;2.95;1.55;;;15.70;82.50;;;;;;5116381;28;20105;-59
2022/01/30 09:26:09;;;;;;;2.97;2.10;;;15.80;82.60;;;;;;5134241;28;20069;-59
2022/01/30 09:28:37;;;;;;;4.82;2.72;;;15.70;82.90;;;;;;5099226;28;20047;-60
2022/01/30 09:31:04;;;;;;;3.20;1.60;;;15.80;82.70;;;;;;5134070;28;20050;-59
2022/01/30 09:33:32;;;;;;;4.40;1.55;;;15.90;82.60;;;;;;5132717;28;20046;-59
2022/01/30 09:36:00;;;;;;;4.28;1.70;;;15.90;82.20;;;;;;5116075;28;20062;-59
2022/01/30 09:38:28;;;;;;;4.50;2.50;;;15.90;81.90;;;;;;5116145;28;20394;-59
2022/01/30 09:40:57;;;;;;;3.50;1.70;;;15.90;82.00;;;;;;5134029;28;20560;-59
2022/01/30 09:43:30;;;;;;;4.13;2.90;;;15.80;82.10;;;;;;5116084;28;20031;-60
2022/01/30 09:45:58;;;;;;;4.65;2.38;;;15.70;81.70;;;;;;5115196;28;20040;-59
2022/01/30 09:48:26;;;;;;;3.95;1.70;;;15.70;82.30;;;;;;5132770;28;20031;-59
2022/01/30 09:50:55;;;;;;;5.15;2.13;;;15.70;82.30;;;;;;5133997;28;20058;-59
2022/01/30 09:53:23;;;;;;;4.72;1.48;;;15.70;81.90;;;;;;5133936;28;20065;-59
2022/01/30 09:55:50;;;;;;;4.72;1.75;;;15.80;82.00;;;;;;5119780;28;20031;-59
2022/01/30 09:58:19;;;;;;;7.07;1.98;;;15.90;82.00;;;;;;5127431;28;20051;-60
2022/01/30 10:00:50;;;;;;;4.90;1.50;;;16.00;81.10;;;;;;5127665;28;20043;-61
2022/01/30 10:03:26;;;;;;;4.35;1.55;;;15.90;79.60;;;;;;5120841;27;20381;-59
2022/01/30 10:06:08;;;;;;;2.85;1.58;;;15.90;78.20;;;;;;5123118;27;20123;-60
2022/01/30 10:08:42;;;;;;;3.65;2.10;;;15.90;76.90;;;;;;5133392;27;20039;-59
2022/01/30 10:11:29;;;;;;;5.88;1.80;;;16.00;76.90;;;;;;5136849;27;20074;-59
2022/01/30 10:14:11;;;;;;;3.05;2.00;;;16.00;77.00;;;;;;5102095;27;20146;-59
2022/01/30 10:16:47;;;;;;;1.92;1.35;;;16.10;77.30;;;;;;5137467;27;20127;-59
2022/01/30 10:19:23;;;;;;;4.72;1.35;;;16.10;76.60;;;;;;5119253;27;20071;-59
2022/01/30 10:22:11;;;;;;;4.43;1.60;;;16.20;76.20;;;;;;5118950;27;20047;-59
2022/01/30 10:24:42;;;;;;;4.47;1.80;;;16.10;75.80;;;;;;5118228;27;20447;-59
2022/01/30 10:27:21;;;;;;;5.25;1.98;;;16.10;75.70;;;;;;5119103;27;20146;-59
2022/01/30 10:30:08;;;;;;;2.50;1.60;;;16.10;75.40;;;;;;5119137;27;20035;-58
2022/01/30 10:32:36;;;;;;;2.97;1.60;;;16.20;75.60;;;;;;5085156;27;20047;-59
2022/01/30 10:35:08;;;;;;;5.13;1.27;;;16.20;75.30;;;;;;5118712;27;20039;-59
2022/01/30 10:37:39;;;;;;;2.50;1.70;;;16.30;74.10;;;;;;5118999;27;20050;-60
2022/01/30 10:40:16;;;;;;;1.95;1.15;;;16.30;73.60;;;;;;5118913;27;20039;-58
2022/01/30 10:42:49;;;;;;;2.90;1.55;;;16.40;73.60;;;;;;5118495;27;20048;-57
2022/01/30 10:45:32;;;;;;;2.72;1.67;;;16.40;73.70;;;;;;5136735;27;20043;-57
2022/01/30 10:48:17;;;;;;;5.40;1.85;;;16.40;74.30;;;;;;5137024;27;20054;-58
2022/01/30 10:50:47;;;;;;;3.28;1.98;;;16.40;75.20;;;;;;5136624;27;20071;-58
2022/01/30 10:53:19;;;;;;;5.20;1.67;;;16.40;75.00;;;;;;5118701;27;20107;-59
2022/01/30 10:55:48;;;;;;;2.67;1.67;;;16.50;75.10;;;;;;5118562;27;20071;-58
2022/01/30 10:58:21;;;;;;;4.95;2.60;;;16.50;75.20;;;;;;5136640;27;20096;-58
2022/01/30 11:00:49;;;;;;;3.47;2.35;;;16.60;75.80;;;;;;5117953;27;20035;-58
2022/01/30 11:03:41;;;;;;;6.72;3.65;;;16.60;74.60;;;;;;5136698;27;20039;-58
2022/01/30 11:06:11;;;;;;;5.78;3.53;;;16.60;74.20;;;;;;5136091;27;20035;-58
2022/01/30 11:08:41;;;;;;;5.28;2.85;;;16.60;74.10;;;;;;5117103;27;20411;-58
2022/01/30 11:14:18;;;;;;;4.80;3.75;;;16.60;73.80;;;;;;5117807;27;20045;-58
2022/01/30 11:17:03;;;;;;;4.13;2.50;;;16.60;73.10;;;;;;5136334;27;20039;-58
2022/01/30 11:19:38;;;;;;;2.15;1.40;;;16.50;73.30;;;;;;5136203;27;20039;-58
2022/01/30 11:22:07;;;;;;;4.75;2.22;;;16.50;74.20;;;;;;5100585;27;20044;-59
2022/01/30 11:25:07;;;;;;;4.20;1.98;;;16.40;76.00;;;;;;5135761;27;20112;-59
2022/01/30 11:27:35;;;;;;;4.00;1.90;;;16.50;76.70;;;;;;5100807;27;20119;-59
2022/01/30 11:30:03;;;;;;;3.63;2.03;;;16.40;75.70;;;;;;5117236;27;20472;-59
2022/01/30 11:32:31;;;;;;;4.75;1.75;;;16.40;75.90;;;;;;5117522;27;20140;-60
2022/01/30 11:34:59;;;;;;;4.25;1.77;;;16.40;75.80;;;;;;5117710;27;20053;-59
2022/01/30 11:37:32;;;;;;;2.83;1.88;;;16.30;77.30;;;;;;5117450;27;20389;-59
2022/01/30 11:40:09;;;;;;;3.70;2.13;;;16.30;78.00;;;;;;5135934;27;20054;-59
2022/01/30 11:42:40;;;;;;;5.13;1.42;;;16.20;78.70;;;;;;5117707;27;20043;-59
2022/01/30 11:45:07;;;;;;;3.78;1.77;;;16.20;78.50;;;;;;5135658;27;20035;-59
2022/01/30 11:48:03;;;;;;;4.32;2.90;;;16.20;79.80;;;;;;5117223;27;20049;-59
2022/01/30 11:50:33;;;;;;;3.60;2.30;;;16.20;79.50;;;;;;5100393;27;20081;-59
2022/01/30 11:53:11;;;;;;;4.82;1.98;;;16.20;80.00;;;;;;5117384;27;20292;-59
2022/01/30 11:56:00;;;;;;;4.53;1.70;;;16.30;80.90;;;;;;5099901;27;20043;-59
2022/01/30 11:58:33;;;;;;;5.63;2.33;;;16.20;80.50;;;;;;5135149;27;20039;-59
2022/01/30 12:01:20;;;;;;;3.35;1.80;;;16.30;81.60;;;;;;5117010;27;20043;-63
2022/01/30 12:04:03;;;;;;;6.03;2.37;;;16.40;82.40;;;;;;5135362;27;20390;-60
2022/01/30 12:06:33;;;;;;;3.72;2.22;;;16.50;81.70;;;;;;5117061;27;20289;-61
2022/01/30 12:09:16;;;;;;;6.00;2.60;;;16.50;79.80;;;;;;5116704;27;20035;-62
2022/01/30 12:11:47;;;;;;;5.45;2.28;;;16.50;80.50;;;;;;5134972;27;20051;-61
2022/01/30 12:14:21;;;;;;;3.22;1.58;;;16.50;82.00;;;;;;5099994;27;20094;-62
2022/01/30 12:16:56;;;;;;;4.93;2.30;;;16.50;81.80;;;;;;5135012;27;20035;-62
2022/01/30 12:19:47;;;;;;;4.43;1.98;;;16.50;82.50;;;;;;5116680;27;20047;-60
2022/01/30 12:22:23;;;;;;;5.88;2.35;;;16.50;82.80;;;;;;5116638;27;20043;-60
2022/01/30 12:25:12;;;;;;;4.40;2.58;;;16.50;81.70;;;;;;5134483;27;20043;-60
2022/01/30 12:27:50;;;;;;;5.38;3.25;;;16.40;81.70;;;;;;5082732;27;20439;-60
2022/01/30 12:30:40;;;;;;;4.13;2.65;;;16.30;82.60;;;;;;5116296;27;20054;-60
2022/01/30 12:33:34;;;;;;;5.32;2.22;;;16.20;83.20;;;;;;5134717;27;20576;-61
2022/01/30 12:36:14;;;;;;;4.57;2.38;;;16.20;83.10;;;;;;5116274;27;20040;-60
2022/01/30 12:38:41;;;;;;;4.63;2.83;;;16.20;82.60;;;;;;5082302;27;20047;-60
2022/01/30 12:41:18;;;;;;;4.03;2.53;;;16.20;82.30;;;;;;5115496;27;20070;-63
2022/01/30 12:43:45;;;;;;;;;;;16.10;83.10;;;;;;5116194;27;20070;-63
2022/01/30 12:46:14;;;;;;;8.73;3.00;;;16.00;83.20;;;;;;5116140;27;19920;-63
2022/01/30 12:48:42;;;;;;;9.07;2.95;;;16.00;83.50;;;;;;5099425;27;20078;-59
2022/01/30 12:51:14;;;;;;;4.22;2.47;;;15.90;83.80;;;;;;5116114;28;20138;-59
2022/01/30 12:53:42;;;;;;;4.47;2.17;;;15.90;83.50;;;;;;5099638;27;20055;-59
2022/01/30 12:56:09;;;;;;;4.90;2.67;;;15.90;83.30;;;;;;5116202;28;20496;-59
2022/01/30 12:58:45;;;;;;;7.15;2.78;;;15.90;82.80;;;;;;5099190;28;20448;-58
2022/01/30 13:01:16;;;;;;;6.00;2.50;;;15.90;83.00;;;;;;5115612;28;20043;-58
2022/01/30 13:03:44;;;;;;;8.90;4.93;;;15.90;83.30;;;;;;5098801;28;20496;-58
2022/01/30 13:06:12;;;;;;;7.38;4.03;;;15.90;83.60;;;;;;5134181;28;20423;-58
2022/01/30 13:08:52;;;;;;;10.38;3.67;;;15.90;83.10;;;;;;5133914;28;20039;-58
2022/01/30 13:11:22;;;;;;;6.43;4.00;;;15.80;83.30;;;;;;5134100;28;20042;-59
2022/01/30 13:13:59;;;;;;;5.28;3.53;;;15.80;83.20;;;;;;5134015;28;20039;-58
2022/01/30 13:16:28;;;;;;;;;;;15.80;83.20;;;;;;5115954;28;20460;-58
2022/01/30 13:18:56;;;;;;;6.25;2.95;;;15.70;83.10;;;;;;5116129;28;20010;-59
2022/01/30 13:21:30;;;;;;;6.13;2.67;;;15.60;83.30;;;;;;5115644;28;20045;-58
2022/01/30 13:23:59;;;;;;;5.78;2.85;;;15.60;84.00;;;;;;5115722;28;20035;-58
2022/01/30 13:26:32;;;;;;;3.95;2.08;;;15.50;84.10;;;;;;5116055;28;20039;-58
2022/01/30 13:29:02;;;;;;;5.65;2.58;;;15.50;84.40;;;;;;5081884;28;20396;-59
2022/01/30 13:31:34;;;;;;;2.80;1.58;;;15.50;84.50;;;;;;5115851;28;20055;-58
2022/01/30 13:34:17;;;;;;;4.05;2.55;;;15.40;84.30;;;;;;5098685;28;20529;-59
2022/01/30 13:36:54;;;;;;;5.38;2.05;;;15.40;84.10;;;;;;5116597;27;20035;-59
2022/01/30 13:39:30;;;;;;;4.20;2.08;;;15.20;83.40;;;;;;5102216;27;20047;-58
2022/01/30 13:46:54;;;;;;;3.25;1.63;;;15.20;84.20;;;;;;5137764;27;20039;-59
2022/01/30 13:48:13;;;;;;;3.03;1.90;;;15.10;83.80;;;;;;5137723;27;20043;-58
2022/01/30 13:50:53;;;;;;;4.35;2.25;;;15.10;84.00;;;;;;5118641;27;20050;-59
2022/01/30 13:53:21;;;;;;;4.22;1.70;;;15.00;83.90;;;;;;5118644;27;20039;-60
2022/01/30 13:56:09;;;;;;;8.00;1.90;;;14.90;83.90;;;;;;5136984;27;20039;-59
2022/01/30 13:58:43;;;;;;;2.88;1.60;;;14.90;84.00;;;;;;5118519;27;20117;-59
2022/01/30 14:01:14;;;;;;;4.03;1.98;;;14.80;84.40;;;;;;5101926;27;20497;-60
2022/01/30 14:03:44;;;;;;;6.47;2.35;;;14.80;84.40;;;;;;5102239;27;20062;-60
2022/01/30 14:06:23;;;;;;;4.07;1.75;;;14.80;84.80;;;;;;5136687;27;20044;-59
2022/01/30 14:08:52;;;;;;;2.60;1.58;;;14.70;85.70;;;;;;5084146;27;20050;-60
2022/01/30 14:11:38;;;;;;;4.38;2.05;;;14.60;84.80;;;;;;5101882;27;20040;-60
2022/01/30 14:14:13;;;;;;;5.05;2.05;;;14.60;85.20;;;;;;5102348;27;20054;-59
2022/01/30 14:16:45;;;;;;;5.50;1.80;;;14.60;86.40;;;;;;5101626;27;20054;-59